Kezdőlap
METAR-TAF:

METAR-TAF

Repülőterek :

Bahreini nemzetközi repülőtér

Bahrein, Bahrein

földrajzi szélesség: 26-16N, földrajzi hosszúság: 050-39E, magasság: 2 m

Jelenlegi meteorológiai megfigyelések

A jelentés 55 perccel ezelõtt készült, 00:00 UTC
Különbözõ irányokból fújó szél 2 kt
Hőmérséklet 31°C
Páratartalom 46%
Légköri nyomás 1003 hPa
Látótávolság 10 km, vagy több
felhőtlen 1500 m magasságban, és nincs gomolyfelhõ

METAR: OBBI 240000Z VRB02KT CAVOK 31/18 Q1003 NOSIG

Idő: 03:55 (00:55 UTC)

Előrejelzés

A jelentés 1 órával és 55 perccel ezelõtt készült, 23:00 UTC
Az előrejelzés 24-én 00 óra UTC és 25-én 06 óra UTC között érvényes
Észak-északnyugati szél 9 kt
Látótávolság 10 km, vagy több
felhőtlen 1500 m magasságban, és nincs gomolyfelhõ

TAF: OBBI 232300Z 2400/2506 34009KT CAVOK

Meteorológiai megfigyelések és előrejelzések több, mint 4000 repülőtéren (METAR és TAF jelentéseket).

A térképen piros és sárga pontok jelzik az elérhető meteorológiai állomásokat.

Mozgassa az egeret a pont fölött, hogy megjelenjen az állomás neve.

Azután kattintson az időjárási megfigyelések és előrejelzések megtekintéséhez.

A térkép megváltoztatása: kattintson a fekete keresztel jelölt zöld gombra ráközelítéshez, a vonallal jelölt zöld gombra távolításhoz, vagy a zöld nyilakra a szomszédos térképek eléréséhez.


METAR-TAF: